Kingston, Jamaica

5:44 PM EST on February 13, 2016 (GMT -0500)
APRSWXNET | | Change Station
CLOSE
Current Station
Personal Weather Station
Location: Kingston,
Elevation: 731 ft
Nearby Weather Stations

Elev 731 ft 18.02 °N, 76.74 °W | Updated 11 days ago

Partly Cloudy
Partly Cloudy
78 °F
Feels Like 78 °F
N
10
Wind Variable Wind from North
Gusts mph

Today
High -- | Low -- °F
--% Chance of Precip.
Yesterday
High -- | Low -- °F
Precip. -- in
Pressure 29.95 in
Visibility 6.2 miles
Clouds Scattered Clouds 2000 ft
Scattered Clouds 3600 ft
Dew Point 72 °F
Humidity 81%
Rainfall in
Snow Depth Not available.
6:35 AM 6:07 PM
Waxing Crescent, 35% visible
METAR MKJP 132200Z 26004KT 9999 SCT020 SCT036 28/23 Q1014
Pressure 29.95 in
Visibility 6.2 miles
Clouds Scattered Clouds 2000 ft
Scattered Clouds 3600 ft
Dew Point 72 °F
Humidity 81%
Rainfall in
Snow Depth Not available.
6:35 AM 6:07 PM
Waxing Crescent, 35% visible
METAR MKJP 132200Z 26004KT 9999 SCT020 SCT036 28/23 Q1014

10-Day Weather Forecast

No radar image for this location.
×

Almanac

Astronomy

Feb. 13, 2016 Rise Set
Actual Time
Civil Twilight
Nautical Twilight
Astronomical Twilight
Moon
Length of Visible Light
Length of Day
Tomorrow will be .
, % of the Moon is Illuminated

Today's Extremes

Country Highs Country Lows

Community

WunderPhotos

Upload Photos

1,892,689 photos uploaded!

WunderBlog® & News

Nearby

Air Quality

  Air Quality AQ Index Pollutant
Not available.

Snow Depth

Station Depth Elevation

Earthquake Activity

City Distance Mag. Time & Date
Minimum magnitude displayed is 2.5.

Coastal Water Temperatures

Place Temperature

Stations

Nearby Weather Stations

Station Location Temp. Windchill Dew Point Humidity Wind Precip. Elev Updated Type